sensor_id;sensor_type;location;lat;lon;timestamp;P1;durP1;ratioP1;P2;durP2;ratioP2
4420;SDS011;11824;51.178;13.546;2022-07-29T00:01:39;4.20;;;1.60;;
4420;SDS011;11824;51.178;13.546;2022-07-29T00:04:09;7.63;;;1.60;;
4420;SDS011;11824;51.178;13.546;2022-07-29T00:06:38;15.10;;;2.20;;
4420;SDS011;11824;51.178;13.546;2022-07-29T00:09:09;4.07;;;2.17;;
4420;SDS011;11824;51.178;13.546;2022-07-29T00:11:37;3.93;;;1.90;;
4420;SDS011;11824;51.178;13.546;2022-07-29T00:14:06;6.63;;;1.90;;
4420;SDS011;11824;51.178;13.546;2022-07-29T00:16:36;3.70;;;1.90;;
4420;SDS011;11824;51.178;13.546;2022-07-29T00:19:05;7.00;;;2.90;;
4420;SDS011;11824;51.178;13.546;2022-07-29T00:21:33;3.20;;;1.60;;
4420;SDS011;11824;51.178;13.546;2022-07-29T00:24:02;4.57;;;2.00;;
4420;SDS011;11824;51.178;13.546;2022-07-29T00:26:32;6.17;;;2.27;;
4420;SDS011;11824;51.178;13.546;2022-07-29T00:29:02;9.57;;;2.80;;
4420;SDS011;11824;51.178;13.546;2022-07-29T00:31:51;4.37;;;1.90;;
4420;SDS011;11824;51.178;13.546;2022-07-29T00:34:20;2.60;;;2.03;;
4420;SDS011;11824;51.178;13.546;2022-07-29T00:37:06;6.30;;;2.20;;
4420;SDS011;11824;51.178;13.546;2022-07-29T00:39:35;5.63;;;2.80;;
4420;SDS011;11824;51.178;13.546;2022-07-29T00:42:05;9.77;;;2.67;;
4420;SDS011;11824;51.178;13.546;2022-07-29T00:44:36;3.77;;;2.07;;
4420;SDS011;11824;51.178;13.546;2022-07-29T00:47:05;9.73;;;2.80;;
4420;SDS011;11824;51.178;13.546;2022-07-29T00:49:34;9.77;;;2.40;;
4420;SDS011;11824;51.178;13.546;2022-07-29T00:52:03;4.10;;;1.80;;
4420;SDS011;11824;51.178;13.546;2022-07-29T00:54:33;6.63;;;2.67;;
4420;SDS011;11824;51.178;13.546;2022-07-29T00:57:11;8.93;;;2.17;;
4420;SDS011;11824;51.178;13.546;2022-07-29T00:59:40;3.87;;;2.10;;
4420;SDS011;11824;51.178;13.546;2022-07-29T01:02:09;7.27;;;2.40;;
4420;SDS011;11824;51.178;13.546;2022-07-29T01:04:38;6.47;;;2.17;;
4420;SDS011;11824;51.178;13.546;2022-07-29T01:07:07;6.93;;;2.30;;
4420;SDS011;11824;51.178;13.546;2022-07-29T01:09:36;8.70;;;2.50;;
4420;SDS011;11824;51.178;13.546;2022-07-29T01:12:13;2.87;;;2.23;;
4420;SDS011;11824;51.178;13.546;2022-07-29T01:14:44;3.20;;;2.10;;
4420;SDS011;11824;51.178;13.546;2022-07-29T01:17:17;9.60;;;2.30;;
4420;SDS011;11824;51.178;13.546;2022-07-29T01:19:51;9.13;;;2.50;;
4420;SDS011;11824;51.178;13.546;2022-07-29T01:22:26;5.17;;;2.30;;
4420;SDS011;11824;51.178;13.546;2022-07-29T01:25:10;4.47;;;2.33;;
4420;SDS011;11824;51.178;13.546;2022-07-29T01:28:05;5.03;;;2.00;;
4420;SDS011;11824;51.178;13.546;2022-07-29T01:30:49;10.43;;;2.60;;
4420;SDS011;11824;51.178;13.546;2022-07-29T01:33:19;10.13;;;2.20;;
4420;SDS011;11824;51.178;13.546;2022-07-29T01:36:10;5.30;;;2.27;;
4420;SDS011;11824;51.178;13.546;2022-07-29T01:38:42;2.50;;;1.90;;
4420;SDS011;11824;51.178;13.546;2022-07-29T01:41:14;11.30;;;3.63;;
4420;SDS011;11824;51.178;13.546;2022-07-29T01:43:48;3.43;;;2.30;;
4420;SDS011;11824;51.178;13.546;2022-07-29T01:46:23;7.60;;;2.70;;
4420;SDS011;11824;51.178;13.546;2022-07-29T01:48:56;6.50;;;2.20;;
4420;SDS011;11824;51.178;13.546;2022-07-29T01:51:29;10.13;;;2.30;;
4420;SDS011;11824;51.178;13.546;2022-07-29T01:54:01;3.30;;;2.10;;
4420;SDS011;11824;51.178;13.546;2022-07-29T01:56:34;4.40;;;2.63;;
4420;SDS011;11824;51.178;13.546;2022-07-29T01:59:06;5.57;;;2.40;;
4420;SDS011;11824;51.178;13.546;2022-07-29T02:01:40;5.93;;;2.20;;
4420;SDS011;11824;51.178;13.546;2022-07-29T02:04:11;4.50;;;2.53;;
4420;SDS011;11824;51.178;13.546;2022-07-29T02:06:56;7.50;;;2.90;;
4420;SDS011;11824;51.178;13.546;2022-07-29T02:09:27;6.43;;;2.27;;
4420;SDS011;11824;51.178;13.546;2022-07-29T02:11:59;4.50;;;2.00;;
4420;SDS011;11824;51.178;13.546;2022-07-29T02:14:29;5.17;;;2.17;;
4420;SDS011;11824;51.178;13.546;2022-07-29T02:17:03;4.20;;;2.10;;
4420;SDS011;11824;51.178;13.546;2022-07-29T02:19:32;5.40;;;2.20;;
4420;SDS011;11824;51.178;13.546;2022-07-29T02:22:01;5.73;;;2.90;;
4420;SDS011;11824;51.178;13.546;2022-07-29T02:24:31;4.40;;;2.67;;
4420;SDS011;11824;51.178;13.546;2022-07-29T02:27:03;7.20;;;2.20;;
4420;SDS011;11824;51.178;13.546;2022-07-29T02:29:32;5.40;;;2.23;;
4420;SDS011;11824;51.178;13.546;2022-07-29T02:32:04;4.53;;;2.40;;
4420;SDS011;11824;51.178;13.546;2022-07-29T02:34:37;39.80;;;4.07;;
4420;SDS011;11824;51.178;13.546;2022-07-29T02:37:07;3.10;;;2.10;;
4420;SDS011;11824;51.178;13.546;2022-07-29T02:39:37;3.27;;;2.60;;
4420;SDS011;11824;51.178;13.546;2022-07-29T02:42:10;7.47;;;2.43;;
4420;SDS011;11824;51.178;13.546;2022-07-29T02:44:42;7.53;;;2.37;;
4420;SDS011;11824;51.178;13.546;2022-07-29T02:47:13;11.20;;;2.57;;
4420;SDS011;11824;51.178;13.546;2022-07-29T02:49:47;4.27;;;2.60;;
4420;SDS011;11824;51.178;13.546;2022-07-29T02:52:22;6.53;;;2.43;;
4420;SDS011;11824;51.178;13.546;2022-07-29T02:54:55;6.83;;;2.93;;
4420;SDS011;11824;51.178;13.546;2022-07-29T02:57:30;9.17;;;2.43;;
4420;SDS011;11824;51.178;13.546;2022-07-29T03:00:21;11.67;;;2.80;;
4420;SDS011;11824;51.178;13.546;2022-07-29T03:02:52;5.47;;;2.60;;
4420;SDS011;11824;51.178;13.546;2022-07-29T03:05:23;6.77;;;2.70;;
4420;SDS011;11824;51.178;13.546;2022-07-29T03:07:54;6.87;;;3.00;;
4420;SDS011;11824;51.178;13.546;2022-07-29T03:10:26;4.07;;;2.20;;
4420;SDS011;11824;51.178;13.546;2022-07-29T03:12:55;4.23;;;2.33;;
4420;SDS011;11824;51.178;13.546;2022-07-29T03:15:24;8.53;;;2.20;;
4420;SDS011;11824;51.178;13.546;2022-07-29T03:17:55;3.93;;;2.60;;
4420;SDS011;11824;51.178;13.546;2022-07-29T03:20:25;6.60;;;2.30;;
4420;SDS011;11824;51.178;13.546;2022-07-29T03:22:54;11.30;;;2.90;;
4420;SDS011;11824;51.178;13.546;2022-07-29T03:25:23;6.30;;;2.43;;
4420;SDS011;11824;51.178;13.546;2022-07-29T03:27:53;7.47;;;2.87;;
4420;SDS011;11824;51.178;13.546;2022-07-29T03:30:22;7.13;;;2.40;;
4420;SDS011;11824;51.178;13.546;2022-07-29T03:32:52;5.17;;;2.50;;
4420;SDS011;11824;51.178;13.546;2022-07-29T03:35:25;8.13;;;2.63;;
4420;SDS011;11824;51.178;13.546;2022-07-29T03:37:54;9.33;;;2.47;;
4420;SDS011;11824;51.178;13.546;2022-07-29T03:40:24;3.60;;;2.23;;
4420;SDS011;11824;51.178;13.546;2022-07-29T03:42:57;16.10;;;3.00;;
4420;SDS011;11824;51.178;13.546;2022-07-29T03:45:28;12.27;;;3.23;;
4420;SDS011;11824;51.178;13.546;2022-07-29T03:48:01;2.97;;;2.30;;
4420;SDS011;11824;51.178;13.546;2022-07-29T03:50:36;5.30;;;2.50;;
4420;SDS011;11824;51.178;13.546;2022-07-29T03:53:04;5.83;;;2.70;;
4420;SDS011;11824;51.178;13.546;2022-07-29T03:55:36;8.93;;;2.60;;
4420;SDS011;11824;51.178;13.546;2022-07-29T03:58:08;9.87;;;3.90;;
4420;SDS011;11824;51.178;13.546;2022-07-29T04:00:38;9.90;;;2.67;;
4420;SDS011;11824;51.178;13.546;2022-07-29T04:03:09;12.00;;;3.20;;
4420;SDS011;11824;51.178;13.546;2022-07-29T04:05:42;6.30;;;2.47;;
4420;SDS011;11824;51.178;13.546;2022-07-29T04:08:11;8.17;;;2.73;;
4420;SDS011;11824;51.178;13.546;2022-07-29T04:10:40;12.50;;;3.13;;
4420;SDS011;11824;51.178;13.546;2022-07-29T04:13:08;9.57;;;4.00;;
4420;SDS011;11824;51.178;13.546;2022-07-29T04:15:37;8.57;;;3.50;;
4420;SDS011;11824;51.178;13.546;2022-07-29T04:18:06;8.83;;;2.90;;
4420;SDS011;11824;51.178;13.546;2022-07-29T04:20:34;12.70;;;3.13;;
4420;SDS011;11824;51.178;13.546;2022-07-29T04:23:04;7.40;;;2.90;;
4420;SDS011;11824;51.178;13.546;2022-07-29T04:25:36;6.93;;;2.60;;
4420;SDS011;11824;51.178;13.546;2022-07-29T04:28:06;14.53;;;2.80;;
4420;SDS011;11824;51.178;13.546;2022-07-29T04:30:35;19.60;;;3.67;;
4420;SDS011;11824;51.178;13.546;2022-07-29T04:33:05;16.07;;;2.47;;
4420;SDS011;11824;51.178;13.546;2022-07-29T04:35:35;9.87;;;3.70;;
4420;SDS011;11824;51.178;13.546;2022-07-29T04:38:17;5.57;;;3.10;;
4420;SDS011;11824;51.178;13.546;2022-07-29T04:40:45;5.87;;;3.10;;
4420;SDS011;11824;51.178;13.546;2022-07-29T04:43:15;7.40;;;2.87;;
4420;SDS011;11824;51.178;13.546;2022-07-29T04:45:48;8.07;;;3.23;;
4420;SDS011;11824;51.178;13.546;2022-07-29T04:48:17;9.13;;;3.73;;
4420;SDS011;11824;51.178;13.546;2022-07-29T04:50:53;10.87;;;3.63;;
4420;SDS011;11824;51.178;13.546;2022-07-29T04:53:24;4.30;;;3.10;;
4420;SDS011;11824;51.178;13.546;2022-07-29T04:55:53;4.30;;;2.60;;
4420;SDS011;11824;51.178;13.546;2022-07-29T04:58:22;4.97;;;2.80;;
4420;SDS011;11824;51.178;13.546;2022-07-29T05:00:51;5.13;;;2.97;;
4420;SDS011;11824;51.178;13.546;2022-07-29T05:03:19;11.97;;;3.37;;
4420;SDS011;11824;51.178;13.546;2022-07-29T05:05:48;16.37;;;3.33;;
4420;SDS011;11824;51.178;13.546;2022-07-29T05:08:17;6.63;;;3.40;;
4420;SDS011;11824;51.178;13.546;2022-07-29T05:10:47;9.10;;;3.70;;
4420;SDS011;11824;51.178;13.546;2022-07-29T05:13:15;28.50;;;5.23;;
4420;SDS011;11824;51.178;13.546;2022-07-29T05:15:44;8.33;;;4.60;;
4420;SDS011;11824;51.178;13.546;2022-07-29T05:18:13;12.27;;;4.87;;
4420;SDS011;11824;51.178;13.546;2022-07-29T05:20:42;13.87;;;4.30;;
4420;SDS011;11824;51.178;13.546;2022-07-29T05:23:10;8.40;;;4.47;;
4420;SDS011;11824;51.178;13.546;2022-07-29T05:25:40;6.73;;;4.97;;
4420;SDS011;11824;51.178;13.546;2022-07-29T05:28:12;9.70;;;4.80;;
4420;SDS011;11824;51.178;13.546;2022-07-29T05:30:41;10.17;;;5.60;;
4420;SDS011;11824;51.178;13.546;2022-07-29T05:33:10;11.93;;;5.43;;
4420;SDS011;11824;51.178;13.546;2022-07-29T05:35:59;15.87;;;7.27;;
4420;SDS011;11824;51.178;13.546;2022-07-29T05:38:28;11.90;;;8.17;;
4420;SDS011;11824;51.178;13.546;2022-07-29T05:40:57;11.43;;;8.53;;
4420;SDS011;11824;51.178;13.546;2022-07-29T05:43:28;19.57;;;8.83;;
4420;SDS011;11824;51.178;13.546;2022-07-29T05:45:57;17.20;;;5.90;;
4420;SDS011;11824;51.178;13.546;2022-07-29T05:48:26;15.30;;;8.80;;
4420;SDS011;11824;51.178;13.546;2022-07-29T05:50:55;12.77;;;8.17;;
4420;SDS011;11824;51.178;13.546;2022-07-29T05:53:23;16.97;;;8.83;;
4420;SDS011;11824;51.178;13.546;2022-07-29T05:55:52;21.27;;;9.60;;
4420;SDS011;11824;51.178;13.546;2022-07-29T05:58:21;21.23;;;10.60;;
4420;SDS011;11824;51.178;13.546;2022-07-29T06:00:51;19.97;;;10.60;;
4420;SDS011;11824;51.178;13.546;2022-07-29T06:03:22;24.53;;;11.10;;
4420;SDS011;11824;51.178;13.546;2022-07-29T06:05:50;16.30;;;9.53;;
4420;SDS011;11824;51.178;13.546;2022-07-29T06:08:19;29.63;;;9.20;;
4420;SDS011;11824;51.178;13.546;2022-07-29T06:10:48;18.83;;;8.20;;
4420;SDS011;11824;51.178;13.546;2022-07-29T06:13:16;18.27;;;8.33;;
4420;SDS011;11824;51.178;13.546;2022-07-29T06:15:45;16.27;;;8.80;;
4420;SDS011;11824;51.178;13.546;2022-07-29T06:18:15;14.80;;;9.07;;
4420;SDS011;11824;51.178;13.546;2022-07-29T06:20:44;18.10;;;7.40;;
4420;SDS011;11824;51.178;13.546;2022-07-29T06:23:13;17.83;;;8.70;;
4420;SDS011;11824;51.178;13.546;2022-07-29T06:25:41;23.47;;;8.40;;
4420;SDS011;11824;51.178;13.546;2022-07-29T06:28:10;17.50;;;8.23;;
4420;SDS011;11824;51.178;13.546;2022-07-29T06:30:39;14.50;;;8.17;;
4420;SDS011;11824;51.178;13.546;2022-07-29T06:33:08;16.23;;;7.00;;
4420;SDS011;11824;51.178;13.546;2022-07-29T06:35:38;19.03;;;8.03;;
4420;SDS011;11824;51.178;13.546;2022-07-29T06:38:19;14.97;;;8.47;;
4420;SDS011;11824;51.178;13.546;2022-07-29T06:40:59;12.57;;;7.93;;
4420;SDS011;11824;51.178;13.546;2022-07-29T06:43:30;20.10;;;8.20;;
4420;SDS011;11824;51.178;13.546;2022-07-29T06:46:20;17.63;;;8.20;;
4420;SDS011;11824;51.178;13.546;2022-07-29T06:48:50;13.87;;;7.60;;
4420;SDS011;11824;51.178;13.546;2022-07-29T06:51:20;15.33;;;7.63;;
4420;SDS011;11824;51.178;13.546;2022-07-29T06:53:49;15.53;;;6.70;;
4420;SDS011;11824;51.178;13.546;2022-07-29T06:56:27;17.83;;;8.13;;
4420;SDS011;11824;51.178;13.546;2022-07-29T06:58:56;20.73;;;6.70;;
4420;SDS011;11824;51.178;13.546;2022-07-29T07:01:26;9.40;;;5.77;;
4420;SDS011;11824;51.178;13.546;2022-07-29T07:03:55;10.20;;;5.60;;
4420;SDS011;11824;51.178;13.546;2022-07-29T07:06:25;11.57;;;6.23;;
4420;SDS011;11824;51.178;13.546;2022-07-29T07:08:54;10.30;;;5.73;;
4420;SDS011;11824;51.178;13.546;2022-07-29T07:11:22;12.70;;;4.90;;
4420;SDS011;11824;51.178;13.546;2022-07-29T07:13:51;17.03;;;5.80;;
4420;SDS011;11824;51.178;13.546;2022-07-29T07:16:27;22.00;;;5.23;;
4420;SDS011;11824;51.178;13.546;2022-07-29T07:18:57;13.30;;;6.20;;
4420;SDS011;11824;51.178;13.546;2022-07-29T07:21:27;13.40;;;4.00;;
4420;SDS011;11824;51.178;13.546;2022-07-29T07:23:56;8.63;;;4.80;;
4420;SDS011;11824;51.178;13.546;2022-07-29T07:26:25;18.00;;;5.00;;
4420;SDS011;11824;51.178;13.546;2022-07-29T07:28:54;8.60;;;4.83;;
4420;SDS011;11824;51.178;13.546;2022-07-29T07:31:23;11.50;;;4.20;;
4420;SDS011;11824;51.178;13.546;2022-07-29T07:33:51;9.50;;;4.10;;
4420;SDS011;11824;51.178;13.546;2022-07-29T07:36:20;17.47;;;5.60;;
4420;SDS011;11824;51.178;13.546;2022-07-29T07:38:51;13.80;;;4.57;;
4420;SDS011;11824;51.178;13.546;2022-07-29T07:41:19;6.67;;;4.10;;
4420;SDS011;11824;51.178;13.546;2022-07-29T07:43:48;8.73;;;4.40;;
4420;SDS011;11824;51.178;13.546;2022-07-29T07:46:17;13.53;;;4.87;;
4420;SDS011;11824;51.178;13.546;2022-07-29T07:48:46;8.13;;;4.70;;
4420;SDS011;11824;51.178;13.546;2022-07-29T07:51:15;10.90;;;4.67;;
4420;SDS011;11824;51.178;13.546;2022-07-29T07:53:43;9.83;;;4.00;;
4420;SDS011;11824;51.178;13.546;2022-07-29T07:56:17;5.70;;;4.03;;
4420;SDS011;11824;51.178;13.546;2022-07-29T07:58:45;20.37;;;5.57;;
4420;SDS011;11824;51.178;13.546;2022-07-29T08:01:14;12.20;;;4.87;;
4420;SDS011;11824;51.178;13.546;2022-07-29T08:03:45;9.77;;;4.83;;
4420;SDS011;11824;51.178;13.546;2022-07-29T08:06:13;6.67;;;4.70;;
4420;SDS011;11824;51.178;13.546;2022-07-29T08:08:42;13.43;;;5.00;;
4420;SDS011;11824;51.178;13.546;2022-07-29T08:11:11;9.03;;;5.43;;
4420;SDS011;11824;51.178;13.546;2022-07-29T08:13:42;12.87;;;5.53;;
4420;SDS011;11824;51.178;13.546;2022-07-29T08:16:13;13.93;;;5.10;;
4420;SDS011;11824;51.178;13.546;2022-07-29T08:18:43;13.00;;;4.97;;
4420;SDS011;11824;51.178;13.546;2022-07-29T08:21:12;12.07;;;5.60;;
4420;SDS011;11824;51.178;13.546;2022-07-29T08:23:45;12.80;;;5.90;;
4420;SDS011;11824;51.178;13.546;2022-07-29T08:26:26;17.43;;;8.20;;
4420;SDS011;11824;51.178;13.546;2022-07-29T08:28:56;9.13;;;5.90;;
4420;SDS011;11824;51.178;13.546;2022-07-29T08:31:25;22.23;;;7.03;;
4420;SDS011;11824;51.178;13.546;2022-07-29T08:33:53;16.07;;;6.77;;
4420;SDS011;11824;51.178;13.546;2022-07-29T08:36:24;17.43;;;7.07;;
4420;SDS011;11824;51.178;13.546;2022-07-29T08:38:52;19.90;;;7.60;;
4420;SDS011;11824;51.178;13.546;2022-07-29T08:41:21;22.33;;;9.03;;
4420;SDS011;11824;51.178;13.546;2022-07-29T08:43:50;16.60;;;8.53;;
4420;SDS011;11824;51.178;13.546;2022-07-29T08:46:20;17.63;;;8.80;;
4420;SDS011;11824;51.178;13.546;2022-07-29T08:48:49;20.53;;;9.00;;
4420;SDS011;11824;51.178;13.546;2022-07-29T08:51:19;21.60;;;9.17;;
4420;SDS011;11824;51.178;13.546;2022-07-29T08:53:48;20.60;;;9.00;;
4420;SDS011;11824;51.178;13.546;2022-07-29T08:56:18;25.50;;;10.50;;
4420;SDS011;11824;51.178;13.546;2022-07-29T08:58:47;15.80;;;9.00;;
4420;SDS011;11824;51.178;13.546;2022-07-29T09:01:22;18.70;;;10.27;;
4420;SDS011;11824;51.178;13.546;2022-07-29T09:04:03;27.13;;;10.60;;
4420;SDS011;11824;51.178;13.546;2022-07-29T09:06:34;19.53;;;10.37;;
4420;SDS011;11824;51.178;13.546;2022-07-29T09:09:07;15.00;;;9.50;;
4420;SDS011;11824;51.178;13.546;2022-07-29T09:11:36;15.60;;;6.30;;
4420;SDS011;11824;51.178;13.546;2022-07-29T09:14:04;17.00;;;6.90;;
4420;SDS011;11824;51.178;13.546;2022-07-29T09:16:52;12.40;;;6.67;;
4420;SDS011;11824;51.178;13.546;2022-07-29T09:19:23;13.23;;;5.97;;
4420;SDS011;11824;51.178;13.546;2022-07-29T09:21:56;12.80;;;6.43;;
4420;SDS011;11824;51.178;13.546;2022-07-29T09:24:38;15.40;;;7.20;;
4420;SDS011;11824;51.178;13.546;2022-07-29T09:27:09;15.30;;;6.73;;
4420;SDS011;11824;51.178;13.546;2022-07-29T09:29:45;22.03;;;7.87;;
4420;SDS011;11824;51.178;13.546;2022-07-29T09:32:15;12.87;;;5.70;;
4420;SDS011;11824;51.178;13.546;2022-07-29T09:34:44;18.60;;;6.80;;
4420;SDS011;11824;51.178;13.546;2022-07-29T09:37:13;16.10;;;6.20;;
4420;SDS011;11824;51.178;13.546;2022-07-29T09:39:54;22.53;;;7.20;;
4420;SDS011;11824;51.178;13.546;2022-07-29T09:42:29;14.70;;;5.80;;
4420;SDS011;11824;51.178;13.546;2022-07-29T09:44:59;18.33;;;6.33;;
4420;SDS011;11824;51.178;13.546;2022-07-29T09:47:40;11.60;;;7.00;;
4420;SDS011;11824;51.178;13.546;2022-07-29T09:50:13;16.30;;;7.63;;
4420;SDS011;11824;51.178;13.546;2022-07-29T09:52:44;14.50;;;7.50;;
4420;SDS011;11824;51.178;13.546;2022-07-29T09:55:14;10.17;;;5.10;;
4420;SDS011;11824;51.178;13.546;2022-07-29T09:57:45;11.70;;;4.27;;
4420;SDS011;11824;51.178;13.546;2022-07-29T10:00:15;14.80;;;4.67;;
4420;SDS011;11824;51.178;13.546;2022-07-29T10:02:46;10.60;;;4.17;;
4420;SDS011;11824;51.178;13.546;2022-07-29T10:05:19;8.60;;;4.00;;
4420;SDS011;11824;51.178;13.546;2022-07-29T10:07:49;8.63;;;4.10;;
4420;SDS011;11824;51.178;13.546;2022-07-29T10:10:23;14.97;;;3.40;;
4420;SDS011;11824;51.178;13.546;2022-07-29T10:12:54;11.20;;;5.03;;
4420;SDS011;11824;51.178;13.546;2022-07-29T10:15:31;4.83;;;3.87;;
4420;SDS011;11824;51.178;13.546;2022-07-29T10:18:07;21.20;;;5.03;;
4420;SDS011;11824;51.178;13.546;2022-07-29T10:20:36;11.90;;;5.00;;
4420;SDS011;11824;51.178;13.546;2022-07-29T10:23:05;11.70;;;5.27;;
4420;SDS011;11824;51.178;13.546;2022-07-29T10:25:34;12.77;;;5.43;;
4420;SDS011;11824;51.178;13.546;2022-07-29T10:28:03;8.83;;;6.47;;
4420;SDS011;11824;51.178;13.546;2022-07-29T10:30:38;16.50;;;5.07;;
4420;SDS011;11824;51.178;13.546;2022-07-29T10:33:14;10.43;;;5.70;;
4420;SDS011;11824;51.178;13.546;2022-07-29T10:35:59;11.33;;;3.60;;
4420;SDS011;11824;51.178;13.546;2022-07-29T10:38:42;15.67;;;3.80;;
4420;SDS011;11824;51.178;13.546;2022-07-29T10:41:33;4.07;;;3.63;;
4420;SDS011;11824;51.178;13.546;2022-07-29T10:44:18;7.83;;;3.93;;
4420;SDS011;11824;51.178;13.546;2022-07-29T10:46:50;9.67;;;4.70;;
4420;SDS011;11824;51.178;13.546;2022-07-29T10:49:21;7.63;;;4.50;;
4420;SDS011;11824;51.178;13.546;2022-07-29T10:51:56;4.10;;;2.67;;
4420;SDS011;11824;51.178;13.546;2022-07-29T10:54:39;6.37;;;4.00;;
4420;SDS011;11824;51.178;13.546;2022-07-29T10:57:14;8.10;;;4.23;;
4420;SDS011;11824;51.178;13.546;2022-07-29T11:00:27;12.50;;;4.10;;
4420;SDS011;11824;51.178;13.546;2022-07-29T11:02:57;8.00;;;4.17;;
4420;SDS011;11824;51.178;13.546;2022-07-29T11:05:52;13.00;;;3.20;;
4420;SDS011;11824;51.178;13.546;2022-07-29T11:08:25;6.67;;;4.20;;
4420;SDS011;11824;51.178;13.546;2022-07-29T11:14:05;3.87;;;3.50;;
4420;SDS011;11824;51.178;13.546;2022-07-29T11:19:31;15.20;;;5.30;;
4420;SDS011;11824;51.178;13.546;2022-07-29T11:22:02;9.07;;;4.27;;
4420;SDS011;11824;51.178;13.546;2022-07-29T11:24:34;6.77;;;4.33;;
4420;SDS011;11824;51.178;13.546;2022-07-29T11:27:16;8.50;;;3.80;;
4420;SDS011;11824;51.178;13.546;2022-07-29T11:29:48;13.23;;;5.27;;
4420;SDS011;11824;51.178;13.546;2022-07-29T11:32:19;6.37;;;4.93;;
4420;SDS011;11824;51.178;13.546;2022-07-29T11:34:49;5.33;;;4.50;;
4420;SDS011;11824;51.178;13.546;2022-07-29T11:37:45;11.53;;;5.37;;
4420;SDS011;11824;51.178;13.546;2022-07-29T11:40:36;8.10;;;6.10;;
4420;SDS011;11824;51.178;13.546;2022-07-29T11:43:07;11.90;;;5.73;;
4420;SDS011;11824;51.178;13.546;2022-07-29T11:45:46;13.13;;;7.10;;
4420;SDS011;11824;51.178;13.546;2022-07-29T11:48:15;12.73;;;6.87;;
4420;SDS011;11824;51.178;13.546;2022-07-29T11:50:55;13.67;;;6.73;;
4420;SDS011;11824;51.178;13.546;2022-07-29T11:53:26;16.50;;;6.90;;
4420;SDS011;11824;51.178;13.546;2022-07-29T11:55:58;10.73;;;7.10;;
4420;SDS011;11824;51.178;13.546;2022-07-29T11:58:29;14.40;;;7.03;;
4420;SDS011;11824;51.178;13.546;2022-07-29T12:00:58;14.07;;;7.70;;
4420;SDS011;11824;51.178;13.546;2022-07-29T12:03:30;13.70;;;7.40;;
4420;SDS011;11824;51.178;13.546;2022-07-29T12:06:02;16.10;;;8.30;;
4420;SDS011;11824;51.178;13.546;2022-07-29T12:08:42;12.07;;;7.60;;
4420;SDS011;11824;51.178;13.546;2022-07-29T12:11:17;11.73;;;7.33;;
4420;SDS011;11824;51.178;13.546;2022-07-29T12:13:48;10.83;;;7.07;;
4420;SDS011;11824;51.178;13.546;2022-07-29T12:16:17;13.53;;;8.47;;
4420;SDS011;11824;51.178;13.546;2022-07-29T12:18:54;18.83;;;7.70;;
4420;SDS011;11824;51.178;13.546;2022-07-29T12:21:24;13.03;;;8.03;;
4420;SDS011;11824;51.178;13.546;2022-07-29T12:23:56;8.57;;;6.83;;
4420;SDS011;11824;51.178;13.546;2022-07-29T12:26:34;12.67;;;6.70;;
4420;SDS011;11824;51.178;13.546;2022-07-29T12:29:05;10.60;;;6.60;;
4420;SDS011;11824;51.178;13.546;2022-07-29T12:31:41;11.03;;;6.17;;
4420;SDS011;11824;51.178;13.546;2022-07-29T12:34:23;13.23;;;5.90;;
4420;SDS011;11824;51.178;13.546;2022-07-29T12:36:54;9.23;;;5.83;;
4420;SDS011;11824;51.178;13.546;2022-07-29T12:39:24;9.30;;;5.97;;
4420;SDS011;11824;51.178;13.546;2022-07-29T12:41:54;8.47;;;5.60;;
4420;SDS011;11824;51.178;13.546;2022-07-29T12:44:42;11.07;;;6.00;;
4420;SDS011;11824;51.178;13.546;2022-07-29T12:47:12;11.93;;;5.80;;
4420;SDS011;11824;51.178;13.546;2022-07-29T12:49:41;12.00;;;5.73;;
4420;SDS011;11824;51.178;13.546;2022-07-29T12:52:26;11.10;;;5.40;;
4420;SDS011;11824;51.178;13.546;2022-07-29T12:54:57;9.03;;;5.17;;
4420;SDS011;11824;51.178;13.546;2022-07-29T12:57:27;9.37;;;5.40;;
4420;SDS011;11824;51.178;13.546;2022-07-29T13:00:05;12.40;;;5.60;;
4420;SDS011;11824;51.178;13.546;2022-07-29T13:02:36;11.03;;;5.63;;
4420;SDS011;11824;51.178;13.546;2022-07-29T13:05:07;8.90;;;5.23;;
4420;SDS011;11824;51.178;13.546;2022-07-29T13:07:37;8.30;;;5.23;;
4420;SDS011;11824;51.178;13.546;2022-07-29T13:10:23;8.20;;;5.83;;
4420;SDS011;11824;51.178;13.546;2022-07-29T13:13:02;12.03;;;6.00;;
4420;SDS011;11824;51.178;13.546;2022-07-29T13:15:32;10.23;;;6.10;;
4420;SDS011;11824;51.178;13.546;2022-07-29T13:18:01;12.70;;;6.20;;
4420;SDS011;11824;51.178;13.546;2022-07-29T13:20:31;14.20;;;6.13;;
4420;SDS011;11824;51.178;13.546;2022-07-29T13:23:00;12.40;;;6.13;;
4420;SDS011;11824;51.178;13.546;2022-07-29T13:25:31;10.93;;;6.00;;
4420;SDS011;11824;51.178;13.546;2022-07-29T13:28:00;9.80;;;6.17;;
4420;SDS011;11824;51.178;13.546;2022-07-29T13:30:29;13.23;;;6.10;;
4420;SDS011;11824;51.178;13.546;2022-07-29T13:32:58;9.47;;;6.27;;
4420;SDS011;11824;51.178;13.546;2022-07-29T13:35:29;16.17;;;6.83;;
4420;SDS011;11824;51.178;13.546;2022-07-29T13:37:57;12.53;;;6.37;;
4420;SDS011;11824;51.178;13.546;2022-07-29T13:40:26;7.17;;;5.40;;
4420;SDS011;11824;51.178;13.546;2022-07-29T13:42:57;9.00;;;5.93;;
4420;SDS011;11824;51.178;13.546;2022-07-29T13:45:26;17.70;;;6.80;;
4420;SDS011;11824;51.178;13.546;2022-07-29T13:47:55;11.27;;;6.07;;
4420;SDS011;11824;51.178;13.546;2022-07-29T13:50:24;7.30;;;5.57;;
4420;SDS011;11824;51.178;13.546;2022-07-29T13:52:52;9.80;;;7.03;;
4420;SDS011;11824;51.178;13.546;2022-07-29T13:55:21;16.13;;;6.00;;
4420;SDS011;11824;51.178;13.546;2022-07-29T13:57:50;11.20;;;6.80;;
4420;SDS011;11824;51.178;13.546;2022-07-29T14:00:20;9.73;;;6.87;;
4420;SDS011;11824;51.178;13.546;2022-07-29T14:02:49;17.20;;;8.00;;
4420;SDS011;11824;51.178;13.546;2022-07-29T14:05:18;11.10;;;6.90;;
4420;SDS011;11824;51.178;13.546;2022-07-29T14:07:47;19.03;;;7.63;;
4420;SDS011;11824;51.178;13.546;2022-07-29T14:10:15;11.17;;;7.17;;
4420;SDS011;11824;51.178;13.546;2022-07-29T14:12:45;25.37;;;7.17;;
4420;SDS011;11824;51.178;13.546;2022-07-29T14:15:14;14.53;;;7.43;;
4420;SDS011;11824;51.178;13.546;2022-07-29T14:17:44;13.73;;;7.37;;
4420;SDS011;11824;51.178;13.546;2022-07-29T14:20:13;10.13;;;7.10;;
4420;SDS011;11824;51.178;13.546;2022-07-29T14:22:43;16.67;;;8.40;;
4420;SDS011;11824;51.178;13.546;2022-07-29T14:25:12;12.23;;;7.90;;
4420;SDS011;11824;51.178;13.546;2022-07-29T14:27:41;13.43;;;9.40;;
4420;SDS011;11824;51.178;13.546;2022-07-29T14:30:10;15.50;;;10.07;;
4420;SDS011;11824;51.178;13.546;2022-07-29T14:32:40;14.90;;;7.80;;
4420;SDS011;11824;51.178;13.546;2022-07-29T14:35:10;13.93;;;8.27;;
4420;SDS011;11824;51.178;13.546;2022-07-29T14:37:41;13.10;;;7.73;;
4420;SDS011;11824;51.178;13.546;2022-07-29T14:40:10;7.77;;;6.70;;
4420;SDS011;11824;51.178;13.546;2022-07-29T14:42:45;11.77;;;8.10;;
4420;SDS011;11824;51.178;13.546;2022-07-29T14:45:14;13.30;;;7.03;;
4420;SDS011;11824;51.178;13.546;2022-07-29T14:47:54;11.20;;;7.53;;
4420;SDS011;11824;51.178;13.546;2022-07-29T14:50:25;14.97;;;7.60;;
4420;SDS011;11824;51.178;13.546;2022-07-29T14:52:57;11.90;;;7.90;;
4420;SDS011;11824;51.178;13.546;2022-07-29T14:55:26;15.37;;;8.07;;
4420;SDS011;11824;51.178;13.546;2022-07-29T14:57:55;15.53;;;8.47;;
4420;SDS011;11824;51.178;13.546;2022-07-29T15:00:35;6.67;;;5.70;;
4420;SDS011;11824;51.178;13.546;2022-07-29T15:03:04;9.53;;;5.60;;
4420;SDS011;11824;51.178;13.546;2022-07-29T15:05:38;9.13;;;5.50;;
4420;SDS011;11824;51.178;13.546;2022-07-29T15:08:06;9.33;;;5.27;;
4420;SDS011;11824;51.178;13.546;2022-07-29T15:10:35;11.90;;;5.40;;
4420;SDS011;11824;51.178;13.546;2022-07-29T15:13:04;11.83;;;6.23;;
4420;SDS011;11824;51.178;13.546;2022-07-29T15:15:33;7.20;;;4.90;;